createdAt,value
2019-02-02T00:01:03.429Z,23.80
2019-02-02T00:03:35.243Z,23.73
2019-02-02T00:06:07.103Z,23.87
2019-02-02T00:08:38.863Z,23.93
2019-02-02T00:11:12.647Z,29.30
2019-02-02T00:13:45.381Z,23.40
2019-02-02T00:16:18.550Z,22.17
2019-02-02T00:18:51.271Z,21.03
2019-02-02T00:21:24.385Z,22.60
2019-02-02T00:23:57.405Z,23.17
2019-02-02T00:26:30.575Z,22.53
2019-02-02T00:29:03.683Z,25.53
2019-02-02T00:31:36.631Z,20.97
2019-02-02T00:34:09.497Z,22.10
2019-02-02T00:36:42.708Z,24.73
2019-02-02T00:39:15.918Z,21.87
2019-02-02T00:41:49.531Z,22.40
2019-02-02T00:44:23.362Z,25.47
2019-02-02T00:46:58.408Z,20.00
2019-02-02T00:49:33.407Z,23.50
2019-02-02T00:52:06.902Z,21.07
2019-02-02T00:54:39.684Z,22.00
2019-02-02T00:57:13.082Z,23.60
2019-02-02T00:59:46.246Z,18.77
2019-02-02T01:02:19.581Z,21.87
2019-02-02T01:04:52.666Z,18.80
2019-02-02T01:07:25.594Z,18.63
2019-02-02T01:09:58.837Z,23.97
2019-02-02T01:12:31.930Z,24.27
2019-02-02T01:15:06.319Z,20.43
2019-02-02T01:17:39.002Z,22.40
2019-02-02T01:20:12.191Z,31.90
2019-02-02T01:22:45.579Z,23.53
2019-02-02T01:25:18.239Z,27.83
2019-02-02T01:27:51.744Z,27.40
2019-02-02T01:30:24.868Z,23.67
2019-02-02T01:32:58.231Z,26.53
2019-02-02T01:35:31.989Z,24.13
2019-02-02T01:38:05.381Z,26.97
2019-02-02T01:40:38.873Z,23.30
2019-02-02T01:43:11.472Z,21.87
2019-02-02T01:45:44.510Z,25.63
2019-02-02T01:48:17.660Z,22.03
2019-02-02T01:50:50.405Z,26.53
2019-02-02T01:53:23.589Z,25.77
2019-02-02T01:55:56.744Z,27.60
2019-02-02T01:58:29.564Z,22.37
2019-02-02T02:01:02.354Z,23.67
2019-02-02T02:03:35.437Z,28.10
2019-02-02T02:06:08.075Z,25.73
2019-02-02T02:08:40.679Z,23.13
2019-02-02T02:11:14.184Z,25.17
2019-02-02T02:13:47.781Z,26.30
2019-02-02T02:16:21.688Z,26.40
2019-02-02T02:18:55.195Z,24.13
2019-02-02T02:21:29.211Z,26.97
2019-02-02T02:24:02.376Z,28.33
2019-02-02T02:26:36.360Z,27.77
2019-02-02T02:29:08.466Z,24.67
2019-02-02T02:31:41.121Z,26.80
2019-02-02T02:34:14.226Z,23.73
2019-02-02T02:36:47.707Z,25.40
2019-02-02T02:39:20.307Z,28.50
2019-02-02T02:41:53.007Z,25.53
2019-02-02T02:44:25.784Z,25.87
2019-02-02T02:46:59.029Z,23.47
2019-02-02T02:49:32.768Z,28.60
2019-02-02T02:52:05.908Z,24.47
2019-02-02T02:54:40.394Z,27.13
2019-02-02T02:57:13.943Z,26.87
2019-02-02T02:59:47.089Z,25.30
2019-02-02T03:02:19.940Z,25.63
2019-02-02T03:04:52.638Z,27.20
2019-02-02T03:07:28.093Z,22.70
2019-02-02T03:10:01.596Z,23.77
2019-02-02T03:12:34.856Z,28.27
2019-02-02T03:15:09.425Z,25.20
2019-02-02T03:17:43.857Z,24.87
2019-02-02T03:20:16.935Z,28.40
2019-02-02T03:22:49.864Z,22.63
2019-02-02T03:25:24.103Z,25.70
2019-02-02T03:27:56.987Z,24.83
2019-02-02T03:30:30.751Z,23.37
2019-02-02T03:33:03.326Z,27.27
2019-02-02T03:35:36.582Z,22.70
2019-02-02T03:38:09.118Z,23.97
2019-02-02T03:40:42.623Z,25.53
2019-02-02T03:43:16.654Z,23.20
2019-02-02T03:45:50.426Z,25.27
2019-02-02T03:48:23.295Z,21.13
2019-02-02T03:50:56.509Z,27.60
2019-02-02T03:53:29.577Z,23.03
2019-02-02T03:56:03.054Z,27.53
2019-02-02T03:58:35.931Z,31.03
2019-02-02T04:01:08.711Z,22.30
2019-02-02T04:03:41.904Z,27.03
2019-02-02T04:06:18.441Z,25.90
2019-02-02T04:08:51.877Z,26.07
2019-02-02T04:11:25.643Z,27.03
2019-02-02T04:14:00.178Z,24.73
2019-02-02T04:16:33.374Z,23.93
2019-02-02T04:19:06.292Z,28.63
2019-02-02T04:21:39.461Z,32.07
2019-02-02T04:24:12.688Z,27.83
2019-02-02T04:26:46.922Z,28.43
2019-02-02T04:29:20.064Z,28.90
2019-02-02T04:31:53.294Z,27.87
2019-02-02T04:34:26.649Z,30.07
2019-02-02T04:37:00.278Z,29.83
2019-02-02T04:39:33.484Z,32.20
2019-02-02T04:42:06.731Z,29.67
2019-02-02T04:44:40.235Z,31.17
2019-02-02T04:47:13.995Z,32.93
2019-02-02T04:49:53.346Z,33.23
2019-02-02T04:52:27.380Z,28.93
2019-02-02T04:55:01.414Z,26.13
2019-02-02T04:57:35.717Z,29.20
2019-02-02T05:00:10.238Z,31.57
2019-02-02T05:02:45.830Z,31.90
2019-02-02T05:05:20.700Z,30.07
2019-02-02T05:07:53.995Z,30.30
2019-02-02T05:10:26.700Z,32.37
2019-02-02T05:13:00.344Z,33.93
2019-02-02T05:15:33.490Z,37.80
2019-02-02T05:18:06.933Z,32.47
2019-02-02T05:20:40.252Z,30.97
2019-02-02T05:23:16.876Z,30.57
2019-02-02T05:25:50.281Z,31.67
2019-02-02T05:28:23.699Z,36.50
2019-02-02T05:30:56.484Z,34.70
2019-02-02T05:33:30.869Z,28.47
2019-02-02T05:36:03.667Z,28.03
2019-02-02T05:38:38.309Z,26.77
2019-02-02T05:41:11.330Z,32.60
2019-02-02T05:43:44.687Z,30.57
2019-02-02T05:46:18.240Z,31.30
2019-02-02T05:48:51.947Z,31.03
2019-02-02T05:51:25.493Z,31.70
2019-02-02T05:53:58.745Z,28.50
2019-02-02T05:56:31.978Z,34.60
2019-02-02T05:59:05.083Z,33.17
2019-02-02T06:01:38.166Z,35.73
2019-02-02T06:04:11.968Z,34.17
2019-02-02T06:06:45.273Z,27.93
2019-02-02T06:09:18.213Z,32.90
2019-02-02T06:11:51.520Z,30.70
2019-02-02T06:14:25.118Z,34.07
2019-02-02T06:16:58.296Z,35.30
2019-02-02T06:19:32.250Z,29.17
2019-02-02T06:22:05.899Z,34.47
2019-02-02T06:24:38.895Z,28.83
2019-02-02T06:27:11.910Z,28.47
2019-02-02T06:29:46.035Z,28.50
2019-02-02T06:32:24.700Z,27.53
2019-02-02T06:34:58.883Z,33.07
2019-02-02T06:37:32.655Z,29.90
2019-02-02T06:40:06.696Z,28.40
2019-02-02T06:42:43.531Z,27.87
2019-02-02T06:45:22.384Z,30.33
2019-02-02T06:47:56.661Z,34.90
2019-02-02T06:50:29.872Z,36.33
2019-02-02T06:53:03.554Z,31.80
2019-02-02T06:55:58.096Z,43.53
2019-02-02T06:58:34.090Z,37.23
2019-02-02T07:01:10.654Z,37.47
2019-02-02T07:03:46.610Z,38.47
2019-02-02T07:06:22.198Z,41.67
2019-02-02T07:09:01.699Z,42.27
2019-02-02T07:11:38.927Z,36.93
2019-02-02T07:14:13.991Z,39.63
2019-02-02T07:16:49.998Z,40.57
2019-02-02T07:19:24.411Z,39.33
2019-02-02T07:22:00.458Z,48.50
2019-02-02T07:24:35.949Z,43.40
2019-02-02T07:27:11.795Z,45.00
2019-02-02T07:29:44.951Z,43.07
2019-02-02T07:32:18.810Z,42.57
2019-02-02T07:34:52.627Z,43.03
2019-02-02T07:37:29.627Z,38.97
2019-02-02T07:40:03.679Z,43.53
2019-02-02T07:42:36.563Z,46.93
2019-02-02T07:45:12.163Z,43.67
2019-02-02T07:47:47.733Z,49.47
2019-02-02T07:50:20.409Z,50.67
2019-02-02T07:52:54.354Z,48.07
2019-02-02T07:55:28.672Z,49.00
2019-02-02T07:58:02.267Z,45.87
2019-02-02T08:00:41.488Z,45.60
2019-02-02T08:03:13.854Z,45.00
2019-02-02T08:05:46.523Z,46.40
2019-02-02T08:08:20.367Z,45.10
2019-02-02T08:10:55.243Z,42.20
2019-02-02T08:13:28.377Z,44.80
2019-02-02T08:16:01.759Z,44.20
2019-02-02T08:18:35.361Z,44.03
2019-02-02T08:21:13.127Z,45.87
2019-02-02T08:23:46.978Z,45.63
2019-02-02T08:26:19.691Z,52.27
2019-02-02T08:28:54.095Z,52.87
2019-02-02T08:31:28.108Z,46.00
2019-02-02T08:34:00.851Z,49.23
2019-02-02T08:36:47.011Z,56.67
2019-02-02T08:39:29.012Z,48.07
2019-02-02T08:41:55.887Z,53.87
2019-02-02T08:44:29.562Z,54.07
2019-02-02T08:47:03.174Z,54.63
2019-02-02T08:49:36.832Z,54.33
2019-02-02T08:52:10.153Z,53.93
2019-02-02T08:54:43.195Z,57.50
2019-02-02T08:57:15.855Z,59.77
2019-02-02T08:59:49.595Z,60.00
2019-02-02T09:02:23.104Z,57.93
2019-02-02T09:04:56.491Z,60.40
2019-02-02T09:07:31.328Z,56.53
2019-02-02T09:10:05.790Z,57.63
2019-02-02T09:12:39.234Z,58.00
2019-02-02T09:15:13.408Z,59.47
2019-02-02T09:17:47.488Z,54.30
2019-02-02T09:20:20.408Z,56.67
2019-02-02T09:23:05.869Z,57.97
2019-02-02T09:25:31.093Z,54.47
2019-02-02T09:28:04.070Z,51.93
2019-02-02T09:30:38.125Z,51.23
2019-02-02T09:33:11.155Z,54.87
2019-02-02T09:35:43.516Z,58.37
2019-02-02T09:38:15.821Z,52.67
2019-02-02T09:40:48.322Z,53.57
2019-02-02T09:43:20.718Z,54.23
2019-02-02T09:45:52.929Z,56.30
2019-02-02T09:48:25.073Z,57.33
2019-02-02T09:50:58.295Z,58.20
2019-02-02T09:53:30.698Z,62.40
2019-02-02T09:56:01.938Z,57.70
2019-02-02T09:58:33.909Z,55.87
2019-02-02T10:01:04.660Z,58.67
2019-02-02T10:03:35.709Z,56.53
2019-02-02T10:06:16.518Z,59.67
2019-02-02T10:08:47.216Z,51.20
2019-02-02T10:11:18.384Z,62.20
2019-02-02T10:13:52.349Z,53.20
2019-02-02T10:16:23.399Z,56.03
2019-02-02T10:18:57.628Z,60.40
2019-02-02T10:21:28.314Z,56.77
2019-02-02T10:23:59.594Z,58.37
2019-02-02T10:26:30.439Z,62.27
2019-02-02T10:29:02.553Z,59.30
2019-02-02T10:31:39.676Z,60.37
2019-02-02T10:34:12.425Z,59.53
2019-02-02T10:36:45.197Z,57.47
2019-02-02T10:39:17.784Z,60.93
2019-02-02T10:41:50.616Z,59.10
2019-02-02T10:44:23.107Z,58.77
2019-02-02T10:46:55.137Z,60.13
2019-02-02T10:49:27.274Z,55.67
2019-02-02T10:51:59.397Z,64.20
2019-02-02T10:54:31.821Z,53.97
2019-02-02T10:57:05.631Z,57.63
2019-02-02T10:59:37.810Z,59.73
2019-02-02T11:02:09.910Z,56.90
2019-02-02T11:04:43.349Z,58.43
2019-02-02T11:07:16.284Z,58.20
2019-02-02T11:09:49.653Z,66.30
2019-02-02T11:12:20.570Z,64.43
2019-02-02T11:14:51.777Z,62.00
2019-02-02T11:17:23.311Z,64.80
2019-02-02T11:19:54.123Z,62.53
2019-02-02T11:22:25.164Z,58.33
2019-02-02T11:24:56.533Z,63.80
2019-02-02T11:27:27.862Z,66.17
2019-02-02T11:30:15.816Z,57.17
2019-02-02T11:32:47.346Z,63.97
2019-02-02T11:35:18.578Z,57.43
2019-02-02T11:37:51.588Z,55.47
2019-02-02T11:40:25.403Z,56.03
2019-02-02T11:42:57.299Z,58.20
2019-02-02T11:45:39.498Z,56.43
2019-02-02T11:48:10.882Z,56.10
2019-02-02T11:50:44.605Z,57.70
2019-02-02T11:53:18.803Z,60.47
2019-02-02T11:55:50.503Z,61.77
2019-02-02T11:58:23.103Z,60.43
2019-02-02T12:00:54.690Z,55.73
2019-02-02T12:03:29.782Z,56.93
2019-02-02T12:06:01.545Z,55.50
2019-02-02T12:08:34.671Z,56.80
2019-02-02T12:11:13.963Z,58.67
2019-02-02T12:13:47.082Z,59.83
2019-02-02T12:16:18.615Z,59.97
2019-02-02T12:18:50.052Z,64.27
2019-02-02T12:21:21.971Z,58.97
2019-02-02T12:23:57.396Z,67.77
2019-02-02T12:26:29.313Z,62.17
2019-02-02T12:29:06.151Z,65.80
2019-02-02T12:31:43.739Z,56.30
2019-02-02T12:34:19.577Z,63.27
2019-02-02T12:36:57.396Z,61.70
2019-02-02T12:39:30.983Z,63.37
2019-02-02T12:42:04.135Z,60.80
2019-02-02T12:44:36.792Z,60.80
2019-02-02T12:47:13.179Z,54.03
2019-02-02T12:50:04.005Z,51.17
2019-02-02T12:53:10.451Z,56.97
2019-02-02T12:55:39.300Z,58.83
2019-02-02T12:58:15.883Z,60.27
2019-02-02T13:00:55.101Z,52.17
2019-02-02T13:03:32.141Z,56.53
2019-02-02T13:06:06.750Z,62.97
2019-02-02T13:08:40.772Z,64.33
2019-02-02T13:11:17.656Z,63.20
2019-02-02T13:13:50.568Z,63.20
2019-02-02T13:16:24.092Z,62.53
2019-02-02T13:18:57.287Z,61.17
2019-02-02T13:21:30.729Z,66.77
2019-02-02T13:24:04.503Z,64.73
2019-02-02T13:26:37.716Z,69.03
2019-02-02T13:29:10.485Z,63.53
2019-02-02T13:31:43.624Z,64.50
2019-02-02T13:34:17.348Z,67.73
2019-02-02T13:36:54.182Z,66.83
2019-02-02T13:39:32.618Z,67.23
2019-02-02T13:42:09.996Z,68.97
2019-02-02T13:44:45.925Z,68.20
2019-02-02T13:47:24.048Z,69.67
2019-02-02T13:50:11.649Z,69.57
2019-02-02T13:52:50.864Z,77.77
2019-02-02T13:55:26.520Z,71.30
2019-02-02T13:58:01.072Z,79.33
2019-02-02T14:00:37.413Z,83.03
2019-02-02T14:03:15.481Z,81.53
2019-02-02T14:05:51.121Z,82.33
2019-02-02T14:08:27.113Z,74.90
2019-02-02T14:11:05.483Z,78.50
2019-02-02T14:13:42.424Z,81.83
2019-02-02T14:16:17.856Z,81.50
2019-02-02T14:18:53.064Z,78.10
2019-02-02T14:21:28.841Z,77.67
2019-02-02T14:24:03.464Z,76.13
2019-02-02T14:26:42.174Z,82.07
2019-02-02T14:29:15.997Z,76.33
2019-02-02T14:31:51.218Z,78.10
2019-02-02T14:34:39.605Z,81.90
2019-02-02T14:37:05.588Z,81.60
2019-02-02T14:39:39.598Z,74.43
2019-02-02T14:42:13.340Z,75.23
2019-02-02T14:44:48.012Z,76.03
2019-02-02T14:47:21.241Z,75.43
2019-02-02T14:49:57.167Z,78.60
2019-02-02T14:52:34.619Z,74.43
2019-02-02T14:55:11.917Z,80.73
2019-02-02T14:57:48.221Z,80.10
2019-02-02T15:00:23.311Z,77.77
2019-02-02T15:02:58.182Z,82.23
2019-02-02T15:05:42.087Z,77.63
2019-02-02T15:08:03.747Z,81.53
2019-02-02T15:10:36.878Z,79.83
2019-02-02T15:13:13.934Z,80.87
2019-02-02T15:15:48.927Z,82.63
2019-02-02T15:18:22.685Z,81.43
2019-02-02T15:20:57.929Z,84.03
2019-02-02T15:23:32.309Z,80.87
2019-02-02T15:26:07.359Z,84.23
2019-02-02T15:28:41.496Z,83.43
2019-02-02T15:31:19.027Z,81.67
2019-02-02T15:33:53.628Z,84.17
2019-02-02T15:36:29.516Z,89.17
2019-02-02T15:39:05.603Z,89.50
2019-02-02T15:41:52.343Z,87.93
2019-02-02T15:44:18.530Z,90.07
2019-02-02T15:46:53.322Z,84.57
2019-02-02T15:49:26.381Z,85.77
2019-02-02T15:51:59.298Z,93.37
2019-02-02T15:54:32.398Z,90.90
2019-02-02T15:57:06.997Z,94.33
2019-02-02T15:59:38.894Z,105.67
2019-02-02T16:02:13.137Z,87.63
2019-02-02T16:04:44.120Z,90.27
2019-02-02T16:07:16.943Z,92.07
2019-02-02T16:09:49.828Z,95.50
2019-02-02T16:12:23.313Z,92.73
2019-02-02T16:14:55.036Z,94.23
2019-02-02T16:17:26.312Z,98.70
2019-02-02T16:19:59.293Z,90.63
2019-02-02T16:22:32.361Z,89.00
2019-02-02T16:25:04.099Z,94.33
2019-02-02T16:27:36.093Z,90.07
2019-02-02T16:30:10.832Z,94.07
2019-02-02T16:32:43.657Z,92.90
2019-02-02T16:35:17.297Z,106.47
2019-02-02T16:37:49.981Z,94.23
2019-02-02T16:40:23.511Z,105.27
2019-02-02T16:42:57.008Z,101.47
2019-02-02T16:45:30.569Z,93.33
2019-02-02T16:48:02.974Z,104.57
2019-02-02T16:50:37.065Z,96.77
2019-02-02T16:53:09.825Z,97.63
2019-02-02T16:55:42.320Z,103.80
2019-02-02T16:58:14.833Z,102.63
2019-02-02T17:00:47.756Z,102.83
2019-02-02T17:03:20.711Z,103.07
2019-02-02T17:05:51.681Z,100.20
2019-02-02T17:08:24.630Z,110.67
2019-02-02T17:10:56.644Z,107.13
2019-02-02T17:13:29.570Z,107.97
2019-02-02T17:16:02.842Z,106.50
2019-02-02T17:18:33.907Z,102.77
2019-02-02T17:21:05.445Z,103.60
2019-02-02T17:23:38.487Z,108.27
2019-02-02T17:26:10.747Z,110.90
2019-02-02T17:28:45.161Z,105.93
2019-02-02T17:31:16.821Z,109.40
2019-02-02T17:33:49.029Z,109.83
2019-02-02T17:36:21.055Z,103.17
2019-02-02T17:38:53.408Z,110.63
2019-02-02T17:41:34.410Z,107.40
2019-02-02T17:44:07.676Z,107.73
2019-02-02T17:46:40.590Z,110.60
2019-02-02T17:49:14.922Z,106.97
2019-02-02T17:51:47.755Z,103.57
2019-02-02T17:54:20.758Z,115.07
2019-02-02T17:56:52.629Z,111.93
2019-02-02T17:59:24.270Z,121.27
2019-02-02T18:01:57.174Z,116.07
2019-02-02T18:04:39.109Z,114.70
2019-02-02T18:07:05.617Z,119.87
2019-02-02T18:09:38.686Z,123.43
2019-02-02T18:12:11.140Z,117.87
2019-02-02T18:14:45.757Z,124.30
2019-02-02T18:17:17.930Z,126.60
2019-02-02T18:19:50.210Z,117.60
2019-02-02T18:22:21.813Z,110.47
2019-02-02T18:24:53.333Z,129.47
2019-02-02T18:27:24.836Z,117.75
2019-02-02T18:29:57.556Z,123.83
2019-02-02T18:32:29.371Z,120.77
2019-02-02T18:35:03.481Z,127.90
2019-02-02T18:37:35.890Z,129.63
2019-02-02T18:40:08.097Z,122.17
2019-02-02T18:42:39.670Z,124.27
2019-02-02T18:45:19.109Z,136.33
2019-02-02T18:47:50.358Z,129.70
2019-02-02T18:50:23.099Z,135.50
2019-02-02T18:52:56.320Z,124.83
2019-02-02T18:55:40.119Z,131.93
2019-02-02T18:58:14.951Z,133.93
2019-02-02T19:00:46.414Z,132.17
2019-02-02T19:03:19.391Z,135.03
2019-02-02T19:05:50.441Z,141.33
2019-02-02T19:08:23.792Z,122.97
2019-02-02T19:10:56.594Z,134.10
2019-02-02T19:13:28.397Z,136.50
2019-02-02T19:16:01.378Z,117.83
2019-02-02T19:18:35.514Z,120.53
2019-02-02T19:21:09.186Z,120.57
2019-02-02T19:23:41.869Z,124.20
2019-02-02T19:26:14.244Z,127.27
2019-02-02T19:28:45.358Z,128.20
2019-02-02T19:31:16.642Z,122.10
2019-02-02T19:33:49.684Z,123.03
2019-02-02T19:36:21.176Z,120.40
2019-02-02T19:38:52.540Z,118.90
2019-02-02T19:41:47.556Z,105.40
2019-02-02T19:44:13.467Z,114.93
2019-02-02T19:46:48.403Z,121.60
2019-02-02T19:49:20.489Z,109.57
2019-02-02T19:51:58.455Z,106.10
2019-02-02T19:54:30.011Z,100.83
2019-02-02T19:57:01.018Z,97.97
2019-02-02T19:59:32.710Z,104.50
2019-02-02T20:02:04.510Z,102.17
2019-02-02T20:04:35.965Z,109.00
2019-02-02T20:07:08.307Z,106.90
2019-02-02T20:09:40.504Z,103.23
2019-02-02T20:12:11.273Z,89.73
2019-02-02T20:14:42.164Z,91.97
2019-02-02T20:17:14.701Z,97.07
2019-02-02T20:19:46.108Z,89.20
2019-02-02T20:22:18.835Z,81.33
2019-02-02T20:24:53.589Z,80.33
2019-02-02T20:27:25.825Z,88.60
2019-02-02T20:29:57.778Z,94.00
2019-02-02T20:32:29.749Z,82.10
2019-02-02T20:35:02.040Z,77.00
2019-02-02T20:37:33.899Z,86.20
2019-02-02T20:40:06.859Z,79.90
2019-02-02T20:42:39.535Z,87.13
2019-02-02T20:45:13.836Z,83.73
2019-02-02T20:47:46.184Z,82.97
2019-02-02T20:50:18.942Z,93.03
2019-02-02T20:52:52.325Z,83.73
2019-02-02T20:55:30.225Z,92.93
2019-02-02T20:58:09.617Z,81.50
2019-02-02T21:00:44.013Z,92.97
2019-02-02T21:03:15.498Z,90.53
2019-02-02T21:05:52.815Z,97.90
2019-02-02T21:08:27.808Z,97.37
2019-02-02T21:11:03.442Z,94.53
2019-02-02T21:13:35.425Z,99.97
2019-02-02T21:16:08.112Z,100.67
2019-02-02T21:18:39.802Z,98.07
2019-02-02T21:21:11.544Z,96.40
2019-02-02T21:23:43.523Z,91.27
2019-02-02T21:26:15.154Z,97.63
2019-02-02T21:28:50.457Z,97.63
2019-02-02T21:31:22.215Z,84.57
2019-02-02T21:33:54.481Z,94.50
2019-02-02T21:36:36.196Z,89.13
2019-02-02T21:39:07.990Z,98.10
2019-02-02T21:41:43.541Z,102.73
2019-02-02T21:44:24.944Z,92.13
2019-02-02T21:47:01.489Z,98.53
2019-02-02T21:49:34.123Z,99.77
2019-02-02T21:53:11.363Z,94.37
2019-02-02T21:56:27.833Z,96.70
2019-02-02T21:59:21.459Z,95.23
2019-02-02T22:02:32.947Z,86.97
2019-02-02T22:05:47.527Z,91.13
2019-02-02T22:08:43.049Z,94.10
2019-02-02T22:11:26.865Z,94.00
2019-02-02T22:13:54.735Z,89.20
2019-02-02T22:17:09.247Z,98.43
2019-02-02T22:19:31.881Z,92.93
2019-02-02T22:22:14.209Z,88.70
2019-02-02T22:25:00.357Z,93.73
2019-02-02T22:27:44.980Z,96.07
2019-02-02T22:30:38.990Z,102.07
2019-02-02T22:33:22.394Z,114.07
2019-02-02T22:36:01.947Z,110.60
2019-02-02T22:39:04.588Z,117.77
2019-02-02T22:41:54.854Z,125.90
2019-02-02T22:44:36.653Z,141.20
2019-02-02T22:47:24.407Z,135.23
2019-02-02T22:50:25.042Z,152.50
2019-02-02T22:54:00.119Z,150.27
2019-02-02T22:56:03.521Z,149.53
2019-02-02T22:58:41.416Z,151.40
2019-02-02T23:01:28.045Z,156.03
2019-02-02T23:05:02.338Z,153.50
2019-02-02T23:12:33.840Z,145.47
2019-02-02T23:15:51.701Z,141.27
2019-02-02T23:18:26.235Z,144.90
2019-02-02T23:21:01.594Z,136.97
2019-02-02T23:23:35.495Z,141.37
2019-02-02T23:26:08.719Z,133.17
2019-02-02T23:28:41.296Z,127.37
2019-02-02T23:31:16.398Z,125.23
2019-02-02T23:33:50.537Z,122.80
2019-02-02T23:36:25.452Z,125.10
2019-02-02T23:38:59.728Z,127.70
2019-02-02T23:41:36.529Z,124.30
2019-02-02T23:44:14.951Z,114.07
2019-02-02T23:46:54.150Z,129.23
2019-02-02T23:49:25.964Z,108.80
2019-02-02T23:52:00.080Z,129.13
2019-02-02T23:54:32.952Z,113.63
2019-02-02T23:57:06.274Z,123.20
2019-02-02T23:59:40.032Z,111.53
